Time;durP1;ratioP1;P1;durP2;ratioP2;P2;SDS_P1;SDS_P2;PMS_P1;PMS_P2;Temp;Humidity;BMP_temperature;BMP_pressure;BME280_temperature;BME280_humidity;BME280_pressure;Samples;Min_cycle;Max_cycle;Signal;HPM_P1;HPM_P2
2022/06/05 00:00:30;;;;;;;9.98;3.13;;;;;;;;;;5115756;27;20050;-43
2022/06/05 00:02:55;;;;;;;18.48;5.20;;;;;;;;;;5117020;27;20419;-43
2022/06/05 00:05:33;;;;;;;6.72;2.80;;;;;;;;;;5117470;27;20110;-41
2022/06/05 00:07:58;;;;;;;3.25;2.30;;;;;;;;;;5114607;27;20039;-44
2022/06/05 00:10:28;;;;;;;9.68;4.13;;;;;;;;;;5115370;27;20564;-42
2022/06/05 00:12:56;;;;;;;12.27;4.28;;;;;;;;;;5113537;27;20096;-41
2022/06/05 00:15:22;;;;;;;4.80;3.28;;;;;;;;;;5108386;27;20047;-44
2022/06/05 00:17:47;;;;;;;7.93;2.70;;;;;;;;;;5105563;27;20516;-41
2022/06/05 00:20:12;;;;;;;11.50;3.65;;;;;;;;;;5105616;27;20487;-44
2022/06/05 00:22:38;;;;;;;5.00;2.85;;;;;;;;;;5116061;27;20043;-44
2022/06/05 00:25:04;;;;;;;4.53;2.95;;;;;;;;;;5106980;27;20050;-47
2022/06/05 00:27:50;;;;;;;9.75;2.58;;;;;;;;;;5109729;27;20416;-41
2022/06/05 00:30:17;;;;;;;6.63;2.50;;;;;;;;;;5114457;28;20416;-40
2022/06/05 00:32:45;;;;;;;3.75;2.67;;;;;;;;;;5119103;27;20049;-45
2022/06/05 00:35:12;;;;;;;5.72;2.78;;;;;;;;;;5119827;27;20039;-45
2022/06/05 00:37:56;;;;;;;6.60;2.75;;;;;;;;;;5119695;27;20936;-45
2022/06/05 00:40:24;;;;;;;3.50;2.28;;;;;;;;;;5105110;28;20512;-44
2022/06/05 00:42:50;;;;;;;5.20;2.33;;;;;;;;;;5114259;28;20076;-48
2022/06/05 00:45:16;;;;;;;4.40;3.25;;;;;;;;;;5109346;27;20059;-46
2022/06/05 00:47:42;;;;;;;4.55;2.65;;;;;;;;;;5105931;27;20047;-43
2022/06/05 00:50:16;;;;;;;6.32;3.30;;;;;;;;;;5107560;27;20120;-44
2022/06/05 00:52:43;;;;;;;8.35;2.08;;;;;;;;;;5105053;27;20047;-47
2022/06/05 00:55:09;;;;;;;3.25;2.13;;;;;;;;;;5119818;27;20042;-43
2022/06/05 00:57:35;;;;;;;3.88;2.15;;;;;;;;;;5121263;27;20056;-44
2022/06/05 01:00:04;;;;;;;7.72;2.85;;;;;;;;;;5122394;27;20043;-43
2022/06/05 01:02:29;;;;;;;12.10;2.92;;;;;;;;;;5121692;27;20520;-42
2022/06/05 01:04:55;;;;;;;6.13;3.08;;;;;;;;;;5121970;27;20130;-45
2022/06/05 01:07:21;;;;;;;3.97;1.33;;;;;;;;;;5119336;27;20511;-43
2022/06/05 01:09:47;;;;;;;6.53;1.77;;;;;;;;;;5122259;27;20355;-43
2022/06/05 01:12:15;;;;;;;1.75;1.20;;;;;;;;;;5121504;27;20479;-48
2022/06/05 01:14:47;;;;;;;9.63;2.63;;;;;;;;;;5121205;27;20035;-46
2022/06/05 01:17:24;;;;;;;15.88;2.75;;;;;;;;;;5122285;27;20206;-42
2022/06/05 01:20:07;;;;;;;4.43;2.80;;;;;;;;;;5121493;27;20043;-46
2022/06/05 01:22:38;;;;;;;3.35;1.90;;;;;;;;;;5117580;27;20131;-45
2022/06/05 01:25:23;;;;;;;10.95;2.55;;;;;;;;;;5113129;27;20043;-42
2022/06/05 01:27:52;;;;;;;3.85;1.58;;;;;;;;;;5121965;27;20039;-44
2022/06/05 01:30:19;;;;;;;7.20;1.95;;;;;;;;;;5119889;27;20044;-46
2022/06/05 01:32:59;;;;;;;6.20;2.25;;;;;;;;;;5122813;27;20504;-42
2022/06/05 01:35:32;;;;;;;2.90;1.70;;;;;;;;;;5119223;27;20180;-41
2022/06/05 01:38:00;;;;;;;1.98;1.50;;;;;;;;;;5118043;27;20043;-41
2022/06/05 01:40:29;;;;;;;2.47;1.83;;;;;;;;;;5122234;27;20039;-41
2022/06/05 01:43:00;;;;;;;8.18;1.98;;;;;;;;;;5122304;27;20047;-46
2022/06/05 01:45:29;;;;;;;2.58;1.98;;;;;;;;;;5118376;27;20039;-42
2022/06/05 01:47:55;;;;;;;5.25;2.42;;;;;;;;;;5119918;27;20192;-46
2022/06/05 01:50:25;;;;;;;2.47;1.67;;;;;;;;;;5121571;27;20043;-44
2022/06/05 01:52:58;;;;;;;8.15;1.98;;;;;;;;;;5122097;27;20087;-46
2022/06/05 01:55:27;;;;;;;5.07;3.15;;;;;;;;;;5123975;27;20039;-43
2022/06/05 01:57:58;;;;;;;6.32;2.38;;;;;;;;;;5121017;27;20419;-44
2022/06/05 02:00:24;;;;;;;3.85;2.13;;;;;;;;;;5116026;27;20051;-47
2022/06/05 02:02:49;;;;;;;6.38;2.00;;;;;;;;;;5116350;27;20535;-41
2022/06/05 02:05:17;;;;;;;5.03;2.25;;;;;;;;;;5110236;27;20526;-42
2022/06/05 02:08:03;;;;;;;6.78;3.55;;;;;;;;;;5097789;27;20055;-42
2022/06/05 02:10:33;;;;;;;4.80;2.20;;;;;;;;;;5120663;27;20070;-42
2022/06/05 02:12:58;;;;;;;2.88;2.00;;;;;;;;;;5119417;27;20051;-42
2022/06/05 02:15:25;;;;;;;8.45;2.38;;;;;;;;;;5113836;27;20044;-46
2022/06/05 02:17:50;;;;;;;6.47;2.97;;;;;;;;;;5121515;27;20517;-42
2022/06/05 02:20:16;;;;;;;4.25;2.95;;;;;;;;;;5119028;27;20126;-45
2022/06/05 02:22:43;;;;;;;5.63;2.95;;;;;;;;;;5120770;27;20051;-42
2022/06/05 02:25:10;;;;;;;6.55;2.97;;;;;;;;;;5116993;27;20044;-41
2022/06/05 02:27:35;;;;;;;3.47;1.80;;;;;;;;;;5109279;27;20453;-42
2022/06/05 02:30:00;;;;;;;11.10;2.85;;;;;;;;;;5113009;27;20158;-43
2022/06/05 02:32:29;;;;;;;5.95;2.53;;;;;;;;;;5117700;27;20181;-44
2022/06/05 02:35:06;;;;;;;6.90;3.22;;;;;;;;;;5108250;27;20055;-44
2022/06/05 02:37:34;;;;;;;2.45;2.00;;;;;;;;;;5104369;27;20508;-42
2022/06/05 02:40:03;;;;;;;6.18;2.25;;;;;;;;;;5104894;27;20082;-46
2022/06/05 02:42:31;;;;;;;3.20;2.38;;;;;;;;;;5109984;27;20055;-42
2022/06/05 02:44:59;;;;;;;8.57;2.58;;;;;;;;;;5110540;27;20158;-41
2022/06/05 02:47:32;;;;;;;2.38;1.63;;;;;;;;;;5110927;27;20086;-42
2022/06/05 02:50:00;;;;;;;2.67;1.73;;;;;;;;;;5107516;27;20101;-43
2022/06/05 02:52:29;;;;;;;11.07;3.17;;;;;;;;;;5117310;27;20090;-47
2022/06/05 02:55:04;;;;;;;3.45;1.92;;;;;;;;;;5118939;27;20040;-43
2022/06/05 02:57:29;;;;;;;13.77;2.72;;;;;;;;;;5106656;27;20070;-42
2022/06/05 02:59:55;;;;;;;5.20;2.08;;;;;;;;;;5105458;27;20075;-41
2022/06/05 03:05:04;;;;;;;6.55;3.78;;;;;;;;;;5122025;27;20585;-41
2022/06/05 03:07:29;;;;;;;4.55;2.90;;;;;;;;;;5117855;27;20079;-42
2022/06/05 03:09:55;;;;;;;4.55;2.75;;;;;;;;;;5108955;27;20040;-45
2022/06/05 03:12:20;;;;;;;3.60;2.33;;;;;;;;;;5120705;27;20031;-43
2022/06/05 03:14:45;;;;;;;3.60;2.72;;;;;;;;;;5117225;27;20479;-44
2022/06/05 03:17:11;;;;;;;4.80;2.63;;;;;;;;;;5119565;27;20504;-47
2022/06/05 03:19:36;;;;;;;4.03;2.08;;;;;;;;;;5111985;27;20518;-46
2022/06/05 03:22:01;;;;;;;3.40;2.05;;;;;;;;;;5120875;27;20419;-44
2022/06/05 03:24:27;;;;;;;4.95;3.00;;;;;;;;;;5119650;27;20420;-44
2022/06/05 03:26:52;;;;;;;4.95;3.40;;;;;;;;;;5109202;27;20109;-42
2022/06/05 03:29:18;;;;;;;5.15;2.47;;;;;;;;;;5118265;27;20158;-45
2022/06/05 03:31:43;;;;;;;4.32;2.03;;;;;;;;;;5115564;27;20482;-44
2022/06/05 03:34:08;;;;;;;3.00;1.70;;;;;;;;;;5113568;27;20039;-44
2022/06/05 03:36:34;;;;;;;2.75;1.88;;;;;;;;;;5115329;27;20090;-42
2022/06/05 03:38:59;;;;;;;5.68;2.95;;;;;;;;;;5116915;27;20043;-43
2022/06/05 03:41:25;;;;;;;10.68;3.53;;;;;;;;;;5120440;27;20130;-42
2022/06/05 03:43:50;;;;;;;3.08;2.20;;;;;;;;;;5116052;27;20039;-41
2022/06/05 03:46:16;;;;;;;8.23;2.85;;;;;;;;;;5119980;27;20045;-42
2022/06/05 03:48:41;;;;;;;3.85;2.60;;;;;;;;;;5108505;27;20044;-42
2022/06/05 03:51:08;;;;;;;6.05;3.30;;;;;;;;;;5115402;27;20047;-45
2022/06/05 03:53:33;;;;;;;2.75;1.83;;;;;;;;;;5103027;27;20085;-43
2022/06/05 03:55:59;;;;;;;7.80;3.15;;;;;;;;;;5110093;27;20043;-43
2022/06/05 03:58:24;;;;;;;4.35;2.47;;;;;;;;;;5107663;27;20725;-43
2022/06/05 04:00:51;;;;;;;4.88;3.15;;;;;;;;;;5112057;27;20627;-44
2022/06/05 04:03:16;;;;;;;10.07;3.97;;;;;;;;;;5111377;27;20055;-43
2022/06/05 04:05:43;;;;;;;3.17;2.50;;;;;;;;;;5108595;27;20035;-45
2022/06/05 04:08:08;;;;;;;8.48;2.47;;;;;;;;;;5109049;27;20056;-44
2022/06/05 04:10:33;;;;;;;9.80;3.25;;;;;;;;;;5115734;27;20096;-43
2022/06/05 04:12:59;;;;;;;5.63;3.15;;;;;;;;;;5116783;27;20082;-41
2022/06/05 04:15:24;;;;;;;3.70;2.33;;;;;;;;;;5114687;27;20479;-44
2022/06/05 04:17:49;;;;;;;12.27;4.45;;;;;;;;;;5112206;27;20052;-41
2022/06/05 04:20:14;;;;;;;3.75;2.72;;;;;;;;;;5115974;27;20278;-41
2022/06/05 04:22:40;;;;;;;4.25;2.67;;;;;;;;;;5107656;27;20500;-44
2022/06/05 04:25:07;;;;;;;4.45;3.03;;;;;;;;;;5090712;28;20563;-46
2022/06/05 04:27:32;;;;;;;8.10;3.47;;;;;;;;;;5118577;27;20040;-43
2022/06/05 04:29:59;;;;;;;7.13;2.33;;;;;;;;;;5119807;27;20100;-42
2022/06/05 04:32:24;;;;;;;10.48;1.65;;;;;;;;;;5116366;27;20035;-43
2022/06/05 04:34:50;;;;;;;7.82;3.00;;;;;;;;;;5116604;27;20050;-43
2022/06/05 04:37:15;;;;;;;4.38;3.10;;;;;;;;;;5118225;27;20113;-41
2022/06/05 04:39:40;;;;;;;7.90;2.83;;;;;;;;;;5120855;28;20050;-42
2022/06/05 04:42:06;;;;;;;4.35;2.58;;;;;;;;;;5119847;28;20047;-44
2022/06/05 04:44:31;;;;;;;18.17;3.20;;;;;;;;;;5117397;28;20408;-48
2022/06/05 04:46:56;;;;;;;6.20;2.70;;;;;;;;;;5116506;28;20420;-41
2022/06/05 04:49:22;;;;;;;8.20;2.60;;;;;;;;;;5119309;28;20380;-43
2022/06/05 04:51:47;;;;;;;4.60;2.67;;;;;;;;;;5099184;28;20035;-45
2022/06/05 04:54:13;;;;;;;19.98;6.43;;;;;;;;;;5115002;28;20051;-41
2022/06/05 04:56:38;;;;;;;11.48;1.80;;;;;;;;;;5118037;28;20089;-43
2022/06/05 04:59:04;;;;;;;4.95;2.60;;;;;;;;;;5109797;27;20121;-44
2022/06/05 05:01:30;;;;;;;7.13;3.05;;;;;;;;;;5109209;28;20048;-44
2022/06/05 05:04:01;;;;;;;4.88;2.85;;;;;;;;;;5115812;28;20107;-45
2022/06/05 05:06:27;;;;;;;6.90;3.33;;;;;;;;;;5110041;28;20394;-41
2022/06/05 05:08:53;;;;;;;7.88;2.65;;;;;;;;;;5104275;27;20047;-43
2022/06/05 05:11:19;;;;;;;20.02;2.33;;;;;;;;;;5112920;28;20551;-41
2022/06/05 05:13:45;;;;;;;14.30;2.33;;;;;;;;;;5108759;27;20063;-42
2022/06/05 05:16:10;;;;;;;17.20;4.80;;;;;;;;;;5105455;28;20461;-40
2022/06/05 05:18:36;;;;;;;18.05;4.75;;;;;;;;;;5114766;27;20138;-41
2022/06/05 05:21:11;;;;;;;7.72;3.17;;;;;;;;;;5118332;27;20127;-41
2022/06/05 05:23:37;;;;;;;18.67;3.72;;;;;;;;;;5113990;28;20051;-42
2022/06/05 05:26:13;;;;;;;16.00;3.00;;;;;;;;;;5118768;28;20055;-44
2022/06/05 05:28:39;;;;;;;6.72;3.45;;;;;;;;;;5108276;28;20044;-41
2022/06/05 05:31:14;;;;;;;16.08;3.50;;;;;;;;;;5110266;28;20055;-43
2022/06/05 05:33:40;;;;;;;13.70;3.80;;;;;;;;;;5115608;28;20046;-43
2022/06/05 05:36:05;;;;;;;11.32;4.07;;;;;;;;;;5114369;28;20035;-43
2022/06/05 05:38:31;;;;;;;9.25;3.17;;;;;;;;;;5120516;27;20122;-43
2022/06/05 05:43:40;;;;;;;10.38;3.05;;;;;;;;;;5120587;27;20058;-45
2022/06/05 05:46:09;;;;;;;20.20;4.28;;;;;;;;;;5118806;27;20507;-41
2022/06/05 05:48:35;;;;;;;10.38;3.25;;;;;;;;;;5114857;27;20058;-43
2022/06/05 05:51:00;;;;;;;9.07;2.55;;;;;;;;;;5115820;27;20047;-44
2022/06/05 05:53:26;;;;;;;8.38;2.33;;;;;;;;;;5122909;27;20130;-46
2022/06/05 05:55:51;;;;;;;8.35;3.13;;;;;;;;;;5112378;27;20530;-47
2022/06/05 05:58:16;;;;;;;16.17;3.47;;;;;;;;;;5120724;27;20031;-43
2022/06/05 06:00:41;;;;;;;5.78;3.50;;;;;;;;;;5118783;27;20801;-41
2022/06/05 06:03:07;;;;;;;6.20;3.38;;;;;;;;;;5115367;27;20757;-43
2022/06/05 06:05:32;;;;;;;8.60;3.45;;;;;;;;;;5116608;27;20095;-44
2022/06/05 06:07:58;;;;;;;13.30;3.67;;;;;;;;;;5117000;27;20039;-42
2022/06/05 06:10:23;;;;;;;16.40;4.78;;;;;;;;;;5118530;27;20519;-44
2022/06/05 06:12:48;;;;;;;8.93;3.78;;;;;;;;;;5117597;27;20412;-42
2022/06/05 06:15:14;;;;;;;21.48;4.75;;;;;;;;;;5115375;27;20048;-44
2022/06/05 06:17:39;;;;;;;7.10;2.63;;;;;;;;;;5114977;27;20173;-42
2022/06/05 06:20:05;;;;;;;5.72;3.25;;;;;;;;;;5108227;27;20119;-43
2022/06/05 06:22:30;;;;;;;6.55;3.53;;;;;;;;;;5117375;27;20121;-46
2022/06/05 06:24:55;;;;;;;8.52;3.15;;;;;;;;;;5112597;27;20100;-44
2022/06/05 06:27:21;;;;;;;19.10;4.38;;;;;;;;;;5114867;27;20600;-41
2022/06/05 06:29:46;;;;;;;11.73;2.50;;;;;;;;;;5116405;27;20051;-43
2022/06/05 06:32:11;;;;;;;10.23;3.63;;;;;;;;;;5112281;27;20455;-41
2022/06/05 06:34:37;;;;;;;4.57;2.38;;;;;;;;;;5115360;27;20759;-46
2022/06/05 06:37:03;;;;;;;15.57;4.88;;;;;;;;;;5114833;27;20630;-44
2022/06/05 06:39:28;;;;;;;15.40;4.18;;;;;;;;;;5106576;27;20539;-42
2022/06/05 06:41:54;;;;;;;4.15;2.10;;;;;;;;;;5111509;27;20050;-43
2022/06/05 06:44:19;;;;;;;6.55;2.40;;;;;;;;;;5111796;27;20036;-43
2022/06/05 06:46:45;;;;;;;6.50;3.47;;;;;;;;;;5113532;27;20503;-45
2022/06/05 06:49:10;;;;;;;12.48;3.10;;;;;;;;;;5114604;27;20055;-45
2022/06/05 06:51:36;;;;;;;9.15;4.20;;;;;;;;;;5110075;27;20392;-42
2022/06/05 06:54:01;;;;;;;7.07;3.13;;;;;;;;;;5118204;27;20046;-47
2022/06/05 06:56:28;;;;;;;7.45;2.63;;;;;;;;;;5114356;27;20051;-45
2022/06/05 06:58:54;;;;;;;10.23;2.83;;;;;;;;;;5115517;27;20070;-46
2022/06/05 07:01:19;;;;;;;7.63;2.35;;;;;;;;;;5117784;27;20078;-44
2022/06/05 07:03:44;;;;;;;15.00;4.80;;;;;;;;;;5119321;27;20099;-45
2022/06/05 07:06:11;;;;;;;6.85;2.85;;;;;;;;;;5117608;27;20040;-45
2022/06/05 07:08:37;;;;;;;9.10;4.07;;;;;;;;;;5117747;27;20079;-44
2022/06/05 07:11:06;;;;;;;5.60;2.15;;;;;;;;;;5115228;27;20059;-46
2022/06/05 07:13:31;;;;;;;7.18;3.83;;;;;;;;;;5121188;27;20039;-44
2022/06/05 07:15:57;;;;;;;12.80;2.63;;;;;;;;;;5118875;27;20472;-42
2022/06/05 07:18:22;;;;;;;12.02;3.03;;;;;;;;;;5118865;27;20122;-42
2022/06/05 07:20:48;;;;;;;9.05;4.15;;;;;;;;;;5114838;27;20042;-47
2022/06/05 07:23:13;;;;;;;8.98;2.67;;;;;;;;;;5117963;27;20095;-45
2022/06/05 07:25:44;;;;;;;15.15;4.55;;;;;;;;;;5120349;27;20072;-43
2022/06/05 07:28:09;;;;;;;;;;;;;;;;;;5119807;27;20510;-44
2022/06/05 07:30:34;;;;;;;8.63;1.93;;;;;;;;;;5117824;27;19911;-43
2022/06/05 07:32:59;;;;;;;5.93;1.40;;;;;;;;;;5117318;27;20100;-43
2022/06/05 07:35:25;;;;;;;11.90;4.45;;;;;;;;;;5109599;27;20405;-43
2022/06/05 07:37:50;;;;;;;5.20;1.73;;;;;;;;;;5106835;27;20078;-43
2022/06/05 07:40:16;;;;;;;12.27;2.95;;;;;;;;;;5101189;27;20415;-44
2022/06/05 07:42:42;;;;;;;3.83;2.63;;;;;;;;;;5108642;27;20059;-49
2022/06/05 07:45:09;;;;;;;7.47;1.98;;;;;;;;;;5114430;27;20048;-45
2022/06/05 07:47:34;;;;;;;14.07;4.53;;;;;;;;;;5113937;27;20039;-43
2022/06/05 07:50:00;;;;;;;21.90;6.72;;;;;;;;;;5117171;27;20049;-44
2022/06/05 07:55:10;;;;;;;13.70;7.93;;;;;;;;;;5113467;27;20042;-45
2022/06/05 07:57:36;;;;;;;5.85;2.55;;;;;;;;;;5116261;27;20482;-43
2022/06/05 08:00:05;;;;;;;5.15;3.70;;;;;;;;;;5118003;27;20055;-45
2022/06/05 08:02:31;;;;;;;10.23;3.22;;;;;;;;;;5118746;27;20054;-44
2022/06/05 08:04:56;;;;;;;5.20;2.65;;;;;;;;;;5114721;27;20045;-45
2022/06/05 08:07:24;;;;;;;4.65;2.22;;;;;;;;;;5108490;27;20427;-40
2022/06/05 08:09:49;;;;;;;10.52;3.67;;;;;;;;;;5111226;27;20067;-43
2022/06/05 08:12:16;;;;;;;10.02;2.88;;;;;;;;;;5101444;27;20539;-41
2022/06/05 08:14:43;;;;;;;10.30;3.75;;;;;;;;;;5106951;27;20140;-48
2022/06/05 08:17:09;;;;;;;11.77;4.07;;;;;;;;;;5102310;27;20508;-48
2022/06/05 08:19:36;;;;;;;19.10;5.70;;;;;;;;;;5107993;27;20031;-43
2022/06/05 08:22:02;;;;;;;9.50;2.80;;;;;;;;;;5110892;27;20118;-42
2022/06/05 08:24:27;;;;;;;12.00;2.90;;;;;;;;;;5118770;27;20134;-61
2022/06/05 08:26:53;;;;;;;21.58;4.35;;;;;;;;;;5113916;27;20058;-62
2022/06/05 08:29:19;;;;;;;20.20;4.25;;;;;;;;;;5112113;27;20094;-62
2022/06/05 08:31:44;;;;;;;9.30;2.85;;;;;;;;;;5112104;27;20058;-62
2022/06/05 08:34:10;;;;;;;7.55;2.25;;;;;;;;;;5111352;27;20051;-62
2022/06/05 08:36:35;;;;;;;7.75;4.03;;;;;;;;;;5116869;27;20036;-62
2022/06/05 08:41:57;;;;;;;8.38;4.55;;;;;;;;;;5110838;28;20419;-62
2022/06/05 08:44:41;;;;;;;6.88;2.38;;;;;;;;;;5111328;28;20067;-61
2022/06/05 08:47:20;;;;;;;14.10;4.40;;;;;;;;;;5115212;27;20058;-62
2022/06/05 08:49:53;;;;;;;16.80;3.38;;;;;;;;;;5118637;28;20050;-61
2022/06/05 08:52:27;;;;;;;18.83;3.97;;;;;;;;;;5117538;28;20175;-63
2022/06/05 08:54:55;;;;;;;19.45;4.80;;;;;;;;;;5118079;28;20096;-64
2022/06/05 08:57:23;;;;;;;12.40;4.32;;;;;;;;;;5118949;28;20415;-63
2022/06/05 08:59:55;;;;;;;14.73;3.53;;;;;;;;;;5119507;28;20044;-62
2022/06/05 09:02:50;;;;;;;11.63;3.72;;;;;;;;;;5119558;28;20050;-65
2022/06/05 09:05:21;;;;;;;5.63;2.80;;;;;;;;;;5058078;28;20072;-63
2022/06/05 09:07:51;;;;;;;10.75;3.75;;;;;;;;;;5103204;27;20054;-65
2022/06/05 09:10:21;;;;;;;20.43;4.67;;;;;;;;;;5106308;27;20131;-65
2022/06/05 09:12:53;;;;;;;17.45;4.55;;;;;;;;;;5116808;27;20032;-65
2022/06/05 09:15:21;;;;;;;20.08;4.15;;;;;;;;;;5116117;27;20035;-65
2022/06/05 09:17:55;;;;;;;14.93;4.72;;;;;;;;;;5115805;27;20035;-65
2022/06/05 09:20:23;;;;;;;7.57;4.00;;;;;;;;;;5114043;27;20062;-65
2022/06/05 09:22:50;;;;;;;18.38;4.32;;;;;;;;;;5118974;27;20168;-65
2022/06/05 09:25:39;;;;;;;17.13;5.57;;;;;;;;;;5120657;27;20099;-65
2022/06/05 09:28:20;;;;;;;11.15;4.30;;;;;;;;;;5116770;27;20470;-64
2022/06/05 09:30:51;;;;;;;14.93;5.50;;;;;;;;;;5108295;27;20037;-65
2022/06/05 09:33:25;;;;;;;9.13;4.13;;;;;;;;;;5115959;27;20065;-65
2022/06/05 09:35:56;;;;;;;10.45;3.95;;;;;;;;;;5117061;27;20544;-65
2022/06/05 09:38:26;;;;;;;9.75;4.22;;;;;;;;;;5121310;27;20044;-65
2022/06/05 09:41:09;;;;;;;13.77;4.72;;;;;;;;;;5122635;27;20523;-66
2022/06/05 09:43:51;;;;;;;8.90;3.25;;;;;;;;;;5117413;27;20562;-65
2022/06/05 09:46:31;;;;;;;14.23;5.00;;;;;;;;;;5123223;27;20072;-66
2022/06/05 09:48:57;;;;;;;11.50;5.50;;;;;;;;;;5116988;27;20054;-65
2022/06/05 09:51:23;;;;;;;10.98;4.65;;;;;;;;;;5111936;27;20047;-65
2022/06/05 09:53:54;;;;;;;21.80;5.53;;;;;;;;;;5110949;27;20043;-65
2022/06/05 09:58:24;;;;;;;12.73;4.85;;;;;;;;;;5110530;27;20051;-65
2022/06/05 09:59:31;;;;;;;11.02;4.03;;;;;;;;;;5111767;27;20047;-65
2022/06/05 10:01:59;;;;;;;7.15;3.70;;;;;;;;;;5108880;27;20280;-66
2022/06/05 10:04:27;;;;;;;18.23;4.65;;;;;;;;;;5118338;27;20066;-66
2022/06/05 10:07:06;;;;;;;31.77;5.22;;;;;;;;;;5111520;27;20047;-65
2022/06/05 10:09:32;;;;;;;11.25;4.65;;;;;;;;;;5118914;27;20043;-68
2022/06/05 10:11:59;;;;;;;11.52;3.78;;;;;;;;;;5118745;27;20508;-64
2022/06/05 10:14:47;;;;;;;10.25;4.22;;;;;;;;;;5118512;27;20613;-64
2022/06/05 10:17:16;;;;;;;21.60;5.80;;;;;;;;;;5119325;27;20054;-65
2022/06/05 10:19:59;;;;;;;13.70;4.43;;;;;;;;;;5116298;27;20466;-65
2022/06/05 10:22:33;;;;;;;4.93;3.03;;;;;;;;;;5098674;27;20126;-65
2022/06/05 10:25:02;;;;;;;13.40;3.65;;;;;;;;;;5119102;27;20137;-63
2022/06/05 10:27:28;;;;;;;13.20;4.55;;;;;;;;;;5122238;27;20044;-63
2022/06/05 10:29:55;;;;;;;9.07;3.28;;;;;;;;;;5118007;27;20066;-64
2022/06/05 10:32:40;;;;;;;27.48;5.18;;;;;;;;;;5120179;27;20043;-63
2022/06/05 10:35:12;;;;;;;13.57;4.47;;;;;;;;;;5118576;27;20043;-63
2022/06/05 10:37:48;;;;;;;12.30;3.63;;;;;;;;;;5113947;27;20618;-64
2022/06/05 10:40:26;;;;;;;7.60;2.90;;;;;;;;;;5108557;27;20103;-63
2022/06/05 10:43:11;;;;;;;16.45;3.75;;;;;;;;;;5102811;27;20066;-62
2022/06/05 10:45:55;;;;;;;13.77;3.80;;;;;;;;;;5110685;27;20514;-63
2022/06/05 10:48:24;;;;;;;10.70;3.70;;;;;;;;;;5118140;27;20757;-63
2022/06/05 10:50:53;;;;;;;17.42;3.47;;;;;;;;;;5120119;27;20077;-62
2022/06/05 10:53:37;;;;;;;22.48;5.10;;;;;;;;;;5117591;27;20039;-62
2022/06/05 10:56:21;;;;;;;4.25;2.47;;;;;;;;;;5121213;27;20118;-62
2022/06/05 10:59:05;;;;;;;12.32;3.67;;;;;;;;;;5115214;27;20050;-63
2022/06/05 11:01:45;;;;;;;6.47;2.22;;;;;;;;;;5115831;27;20036;-62
2022/06/05 11:04:29;;;;;;;2.85;1.80;;;;;;;;;;5112107;27;20047;-62
2022/06/05 11:07:13;;;;;;;8.40;3.45;;;;;;;;;;5103853;27;20047;-63
2022/06/05 11:10:07;;;;;;;19.45;4.93;;;;;;;;;;5117933;27;20472;-62
2022/06/05 11:15:28;;;;;;;14.10;4.93;;;;;;;;;;5107569;27;20226;-62
2022/06/05 11:18:12;;;;;;;10.77;2.83;;;;;;;;;;5109731;27;20044;-62
2022/06/05 11:20:41;;;;;;;14.70;3.75;;;;;;;;;;5118216;27;20186;-63
2022/06/05 11:23:09;;;;;;;25.95;4.90;;;;;;;;;;5119381;27;20051;-62
2022/06/05 11:25:37;;;;;;;7.72;3.08;;;;;;;;;;5116266;27;20040;-62
2022/06/05 11:28:21;;;;;;;8.18;2.88;;;;;;;;;;5115324;27;20166;-63
2022/06/05 11:30:52;;;;;;;31.42;4.40;;;;;;;;;;5113846;27;20035;-62
2022/06/05 11:33:20;;;;;;;15.95;3.70;;;;;;;;;;5120982;27;20083;-62
2022/06/05 11:35:55;;;;;;;6.28;1.88;;;;;;;;;;5116011;27;20141;-62
2022/06/05 11:38:35;;;;;;;11.35;4.00;;;;;;;;;;5113723;27;20035;-62
2022/06/05 11:41:01;;;;;;;;;;;;;;;;;;5119319;27;20073;-62
2022/06/05 11:43:31;;;;;;;17.73;3.17;;;;;;;;;;5119034;27;19994;-62
2022/06/05 11:45:59;;;;;;;6.25;1.75;;;;;;;;;;5120465;27;20093;-62
2022/06/05 11:48:30;;;;;;;14.45;3.10;;;;;;;;;;5119490;27;20079;-63
2022/06/05 11:51:06;;;;;;;8.15;2.83;;;;;;;;;;5120450;27;20531;-62
2022/06/05 11:53:34;;;;;;;15.57;4.93;;;;;;;;;;5113062;27;20040;-62
2022/06/05 11:56:19;;;;;;;9.77;4.22;;;;;;;;;;5117317;27;20046;-62
2022/06/05 11:58:52;;;;;;;10.68;3.65;;;;;;;;;;5116906;27;20059;-62
2022/06/05 12:01:19;;;;;;;5.50;1.80;;;;;;;;;;5108211;27;20035;-62
2022/06/05 12:03:50;;;;;;;7.25;3.10;;;;;;;;;;5111245;27;20055;-62
2022/06/05 12:06:27;;;;;;;7.40;3.78;;;;;;;;;;5109695;27;20173;-62
2022/06/05 12:08:57;;;;;;;8.27;3.33;;;;;;;;;;5105861;27;20043;-62
2022/06/05 12:11:34;;;;;;;1.90;1.60;;;;;;;;;;5118809;27;20153;-62
2022/06/05 12:13:59;;;;;;;18.40;3.08;;;;;;;;;;5116334;27;20507;-59
2022/06/05 12:16:32;;;;;;;15.38;4.85;;;;;;;;;;5114958;27;20053;-61
2022/06/05 12:19:07;;;;;;;6.70;2.28;;;;;;;;;;5114383;27;20078;-61
2022/06/05 12:21:34;;;;;;;3.47;1.42;;;;;;;;;;5111787;27;20465;-61
2022/06/05 12:24:21;;;;;;;18.42;2.83;;;;;;;;;;5117415;27;20142;-61
2022/06/05 12:26:54;;;;;;;14.18;3.25;;;;;;;;;;5103643;27;20070;-61
2022/06/05 12:29:20;;;;;;;5.32;1.70;;;;;;;;;;5117022;27;20050;-61
2022/06/05 12:31:51;;;;;;;14.57;4.90;;;;;;;;;;5111307;27;20051;-62
2022/06/05 12:34:19;;;;;;;8.35;4.30;;;;;;;;;;5115606;28;20035;-61
2022/06/05 12:36:54;;;;;;;17.35;4.97;;;;;;;;;;5120459;27;20138;-61
2022/06/05 12:39:31;;;;;;;8.65;4.95;;;;;;;;;;5118808;27;20043;-61
2022/06/05 12:42:15;;;;;;;9.63;5.03;;;;;;;;;;5117474;27;20047;-61
2022/06/05 12:44:41;;;;;;;8.75;4.05;;;;;;;;;;5118907;28;20039;-61
2022/06/05 12:47:09;;;;;;;16.42;5.10;;;;;;;;;;5101739;28;20043;-61
2022/06/05 12:49:53;;;;;;;3.88;1.83;;;;;;;;;;5115740;28;20044;-62
2022/06/05 12:52:27;;;;;;;8.52;2.58;;;;;;;;;;5118030;28;20192;-61
2022/06/05 12:54:55;;;;;;;9.73;2.80;;;;;;;;;;5115015;27;20123;-62
2022/06/05 12:57:30;;;;;;;10.77;4.13;;;;;;;;;;5117466;28;20086;-62
2022/06/05 13:00:12;;;;;;;42.25;7.18;;;;;;;;;;5110948;27;20131;-62
2022/06/05 13:02:44;;;;;;;11.80;5.15;;;;;;;;;;5113192;27;20053;-62
2022/06/05 13:05:12;;;;;;;8.20;3.92;;;;;;;;;;5101016;28;20039;-61
2022/06/05 13:07:56;;;;;;;16.88;4.65;;;;;;;;;;5117406;28;20042;-61
2022/06/05 13:10:24;;;;;;;10.38;4.38;;;;;;;;;;5115316;28;20070;-61
2022/06/05 13:12:53;;;;;;;5.78;2.90;;;;;;;;;;5116424;28;20439;-61
2022/06/05 13:15:30;;;;;;;8.32;3.78;;;;;;;;;;5107372;27;20066;-61
2022/06/05 13:18:03;;;;;;;9.90;3.92;;;;;;;;;;5103842;28;20517;-63
2022/06/05 13:20:31;;;;;;;8.00;3.08;;;;;;;;;;5116646;28;20818;-61
2022/06/05 13:23:15;;;;;;;11.70;3.15;;;;;;;;;;5112267;28;20566;-61
2022/06/05 13:25:59;;;;;;;8.27;3.15;;;;;;;;;;5108943;28;20048;-62
2022/06/05 13:28:35;;;;;;;14.30;3.08;;;;;;;;;;5119743;28;20050;-62
2022/06/05 13:31:18;;;;;;;9.95;4.13;;;;;;;;;;5105490;27;20100;-62
2022/06/05 13:34:02;;;;;;;5.43;2.33;;;;;;;;;;5113463;28;20815;-61
2022/06/05 13:36:32;;;;;;;12.48;3.15;;;;;;;;;;5117899;28;20497;-61
2022/06/05 13:39:01;;;;;;;34.65;5.60;;;;;;;;;;5115781;28;20380;-62
2022/06/05 13:41:33;;;;;;;7.85;2.47;;;;;;;;;;5115663;28;20043;-61
2022/06/05 13:44:15;;;;;;;5.60;2.35;;;;;;;;;;5114681;28;20142;-62
2022/06/05 13:46:56;;;;;;;8.07;4.40;;;;;;;;;;5114419;28;20055;-61
2022/06/05 13:49:21;;;;;;;6.18;3.55;;;;;;;;;;5116949;28;20352;-62
2022/06/05 13:51:56;;;;;;;3.75;1.52;;;;;;;;;;5106451;28;20445;-61
2022/06/05 13:54:34;;;;;;;7.43;3.28;;;;;;;;;;5117409;28;20126;-62
2022/06/05 13:57:22;;;;;;;8.57;3.45;;;;;;;;;;5115652;28;20039;-61
2022/06/05 13:59:49;;;;;;;3.65;2.45;;;;;;;;;;5085297;27;20111;-61
2022/06/05 14:02:32;;;;;;;8.98;2.45;;;;;;;;;;5123003;27;20047;-62
2022/06/05 14:05:17;;;;;;;17.00;3.67;;;;;;;;;;5120295;27;20038;-61
2022/06/05 14:07:46;;;;;;;8.02;3.22;;;;;;;;;;5122157;27;20621;-62
2022/06/05 14:10:23;;;;;;;10.85;2.72;;;;;;;;;;5110366;27;20044;-62
2022/06/05 14:13:09;;;;;;;5.32;1.98;;;;;;;;;;5119822;27;20035;-61
2022/06/05 14:15:43;;;;;;;11.82;4.65;;;;;;;;;;5111137;27;20031;-62
2022/06/05 14:18:18;;;;;;;6.82;2.67;;;;;;;;;;5117364;27;20039;-61
2022/06/05 14:20:47;;;;;;;12.73;5.22;;;;;;;;;;5119625;27;20201;-61
2022/06/05 14:23:18;;;;;;;4.57;2.05;;;;;;;;;;5121721;27;20135;-61
2022/06/05 14:25:47;;;;;;;20.17;5.30;;;;;;;;;;5113894;27;20042;-61
2022/06/05 14:28:14;;;;;;;10.18;3.28;;;;;;;;;;5115045;27;20050;-61
2022/06/05 14:31:06;;;;;;;9.35;2.67;;;;;;;;;;5118025;27;20035;-61
2022/06/05 14:33:32;;;;;;;9.95;3.70;;;;;;;;;;5115740;27;20138;-62
2022/06/05 14:35:58;;;;;;;13.82;2.85;;;;;;;;;;5118677;27;20043;-61
2022/06/05 14:38:38;;;;;;;19.08;4.68;;;;;;;;;;5110754;27;20066;-61
2022/06/05 14:41:13;;;;;;;7.05;4.22;;;;;;;;;;5114678;27;20047;-61
2022/06/05 14:43:41;;;;;;;16.20;3.55;;;;;;;;;;5119785;27;20162;-62
2022/06/05 14:46:30;;;;;;;4.78;2.70;;;;;;;;;;5119763;27;20423;-62
2022/06/05 14:49:02;;;;;;;9.80;3.55;;;;;;;;;;5102235;27;20516;-62
2022/06/05 14:51:37;;;;;;;9.52;3.70;;;;;;;;;;5113266;27;20138;-61
2022/06/05 14:54:12;;;;;;;6.03;2.50;;;;;;;;;;5105064;27;20052;-61
2022/06/05 14:59:39;;;;;;;9.07;3.95;;;;;;;;;;5113922;27;20051;-62
2022/06/05 15:02:26;;;;;;;9.38;3.90;;;;;;;;;;5114713;27;20059;-62
2022/06/05 15:05:04;;;;;;;8.75;3.60;;;;;;;;;;5119921;27;20043;-62
2022/06/05 15:07:35;;;;;;;8.48;2.47;;;;;;;;;;5117574;27;20047;-62
2022/06/05 15:10:00;;;;;;;6.40;2.95;;;;;;;;;;5105735;27;20082;-62
2022/06/05 15:12:32;;;;;;;14.63;3.53;;;;;;;;;;5113329;27;20109;-62